createdAt,value
2016-12-08T00:00:05.772Z,0
2016-12-08T00:01:14.663Z,0
2016-12-08T00:02:23.886Z,0
2016-12-08T00:03:32.903Z,0
2016-12-08T00:04:41.470Z,0
2016-12-08T00:05:50.358Z,0
2016-12-08T00:06:58.927Z,0
2016-12-08T00:08:07.495Z,0
2016-12-08T00:09:16.119Z,0
2016-12-08T00:10:24.689Z,0
2016-12-08T00:11:33.905Z,0
2016-12-08T00:12:42.472Z,0
2016-12-08T00:13:51.369Z,0
2016-12-08T00:14:59.988Z,0
2016-12-08T00:16:08.560Z,0
2016-12-08T00:17:17.452Z,0
2016-12-08T00:18:26.023Z,0
2016-12-08T00:19:34.593Z,0
2016-12-08T00:20:43.513Z,0
2016-12-08T00:21:52.108Z,0
2016-12-08T00:23:00.676Z,0
2016-12-08T00:24:09.564Z,0
2016-12-08T00:25:18.453Z,0
2016-12-08T00:26:27.708Z,0
2016-12-08T00:27:36.278Z,0
2016-12-08T00:28:44.854Z,0
2016-12-08T00:29:53.751Z,0
2016-12-08T00:31:02.637Z,0
2016-12-08T00:32:11.554Z,0
2016-12-08T00:33:20.119Z,0
2016-12-08T00:34:28.688Z,0
2016-12-08T00:35:37.261Z,0
2016-12-08T00:36:45.832Z,0
2016-12-08T00:37:54.769Z,0
2016-12-08T00:39:03.345Z,0
2016-12-08T00:40:11.915Z,0
2016-12-08T00:41:20.799Z,0
2016-12-08T00:42:29.371Z,0
2016-12-08T00:43:38.388Z,0
2016-12-08T00:44:46.959Z,0
2016-12-08T00:45:56.171Z,0
2016-12-08T00:47:05.378Z,0
2016-12-08T00:48:14.264Z,0
2016-12-08T00:49:22.883Z,0
2016-12-08T00:50:31.773Z,0
2016-12-08T00:51:40.660Z,0
2016-12-08T00:52:49.550Z,0
2016-12-08T00:53:58.758Z,0
2016-12-08T00:55:07.379Z,0
2016-12-08T00:56:16.297Z,0
2016-12-08T00:57:24.868Z,0
2016-12-08T00:58:33.436Z,0
2016-12-08T00:59:42.009Z,0
2016-12-08T01:00:50.976Z,0
2016-12-08T01:01:59.546Z,0
2016-12-08T01:03:08.126Z,0
2016-12-08T01:04:16.700Z,0
2016-12-08T01:05:25.271Z,0
2016-12-08T01:06:34.223Z,0
2016-12-08T01:07:42.815Z,0
2016-12-08T01:08:51.397Z,0
2016-12-08T01:10:00.607Z,0
2016-12-08T01:11:09.177Z,0
2016-12-08T01:12:18.162Z,0
2016-12-08T01:13:27.053Z,0
2016-12-08T01:14:36.264Z,0
2016-12-08T01:15:44.841Z,0
2016-12-08T01:16:53.724Z,0
2016-12-08T01:18:02.717Z,0
2016-12-08T01:19:11.611Z,0
2016-12-08T01:20:20.187Z,0
2016-12-08T01:21:28.758Z,0
2016-12-08T01:22:37.329Z,0
2016-12-08T01:23:46.000Z,0
2016-12-08T01:24:54.580Z,0
2016-12-08T01:26:03.147Z,0
2016-12-08T01:27:12.038Z,0
2016-12-08T01:28:21.247Z,0
2016-12-08T01:29:30.484Z,0
2016-12-08T01:30:39.060Z,0
2016-12-08T01:31:47.972Z,0
2016-12-08T01:32:56.549Z,0
2016-12-08T01:34:05.156Z,0
2016-12-08T01:35:14.173Z,0
2016-12-08T01:36:23.060Z,0
2016-12-08T01:37:31.945Z,0
2016-12-08T01:38:40.514Z,0
2016-12-08T01:39:49.402Z,0
2016-12-08T01:40:58.375Z,0
2016-12-08T01:42:06.947Z,0
2016-12-08T01:43:15.545Z,0
2016-12-08T01:44:24.118Z,0
2016-12-08T01:45:33.002Z,0
2016-12-08T01:46:42.194Z,0
2016-12-08T01:47:51.396Z,0
2016-12-08T01:48:59.960Z,0
2016-12-08T01:50:08.847Z,0
2016-12-08T01:51:17.416Z,0
2016-12-08T01:52:26.399Z,0
2016-12-08T01:53:35.285Z,0
2016-12-08T01:54:43.852Z,0
2016-12-08T01:55:52.423Z,0
2016-12-08T01:57:01.629Z,0
2016-12-08T01:58:10.653Z,0
2016-12-08T01:59:19.221Z,0
2016-12-08T02:00:28.112Z,0
2016-12-08T02:01:36.680Z,0
2016-12-08T02:02:45.242Z,0
2016-12-08T02:03:53.913Z,0
2016-12-08T02:05:02.798Z,0
2016-12-08T02:06:11.687Z,0
2016-12-08T02:07:20.258Z,0
2016-12-08T02:08:29.141Z,0
2016-12-08T02:09:38.009Z,0
2016-12-08T02:10:46.580Z,0
2016-12-08T02:11:55.147Z,0
2016-12-08T02:13:04.359Z,0
2016-12-08T02:14:12.929Z,0
2016-12-08T02:15:21.549Z,0
2016-12-08T02:16:30.125Z,0
2016-12-08T02:17:39.011Z,0
2016-12-08T02:18:47.584Z,0
2016-12-08T02:19:56.153Z,0
2016-12-08T02:21:05.155Z,0
2016-12-08T02:22:14.359Z,0
2016-12-08T02:23:22.931Z,0
2016-12-08T02:24:31.820Z,0
2016-12-08T02:25:40.708Z,0
2016-12-08T02:26:49.901Z,0
2016-12-08T02:27:58.791Z,0
2016-12-08T02:29:07.676Z,0
2016-12-08T02:30:16.563Z,0
2016-12-08T02:31:25.133Z,0
2016-12-08T02:32:33.749Z,0
2016-12-08T02:33:42.321Z,0
2016-12-08T02:34:51.211Z,0
2016-12-08T02:35:59.776Z,0
2016-12-08T02:37:08.672Z,0
2016-12-08T02:38:17.591Z,0
2016-12-08T02:39:26.199Z,0
2016-12-08T02:40:48.141Z,0
2016-12-08T02:41:56.710Z,0
2016-12-08T02:43:05.597Z,0
2016-12-08T02:44:14.934Z,0
2016-12-08T02:45:23.826Z,0
2016-12-08T02:46:32.402Z,0
2016-12-08T02:47:41.932Z,0
2016-12-08T02:48:50.504Z,0
2016-12-08T02:49:59.752Z,0
2016-12-08T02:51:08.638Z,0
2016-12-08T02:52:17.208Z,0
2016-12-08T02:53:26.094Z,0
2016-12-08T02:54:34.663Z,0
2016-12-08T02:55:43.588Z,0
2016-12-08T02:56:52.529Z,0
2016-12-08T02:58:01.420Z,0
2016-12-08T02:59:10.311Z,0
2016-12-08T03:00:19.205Z,0
2016-12-08T03:01:27.871Z,0
2016-12-08T03:02:36.759Z,0
2016-12-08T03:03:45.968Z,0
2016-12-08T03:04:54.857Z,0
2016-12-08T03:06:03.430Z,0
2016-12-08T03:07:12.051Z,0
2016-12-08T03:08:20.942Z,0
2016-12-08T03:09:29.828Z,0
2016-12-08T03:10:38.724Z,0
2016-12-08T03:11:47.299Z,0
2016-12-08T03:12:56.964Z,0
2016-12-08T03:14:05.537Z,0
2016-12-08T03:15:14.112Z,0
2016-12-08T03:16:23.006Z,0
2016-12-08T03:17:31.580Z,0
2016-12-08T03:18:40.527Z,0
2016-12-08T03:19:49.419Z,0
2016-12-08T03:20:58.310Z,0
2016-12-08T03:22:07.197Z,0
2016-12-08T03:23:16.085Z,0
2016-12-08T03:24:24.754Z,0
2016-12-08T03:25:33.645Z,0
2016-12-08T03:26:42.533Z,0
2016-12-08T03:27:51.111Z,0
2016-12-08T03:29:00.028Z,0
2016-12-08T03:30:08.964Z,0
2016-12-08T03:31:17.853Z,0
2016-12-08T03:32:26.425Z,0
2016-12-08T03:33:35.315Z,0
2016-12-08T03:34:44.523Z,0
2016-12-08T03:35:53.195Z,0
2016-12-08T03:37:02.102Z,0
2016-12-08T03:38:10.998Z,0
2016-12-08T03:39:19.886Z,0
2016-12-08T03:40:28.452Z,0
2016-12-08T03:41:37.122Z,0
2016-12-08T03:42:46.017Z,0
2016-12-08T03:43:54.587Z,0
2016-12-08T03:45:03.157Z,0
2016-12-08T03:46:12.048Z,0
2016-12-08T03:47:20.670Z,0
2016-12-08T03:48:29.877Z,0
2016-12-08T03:49:38.764Z,0
2016-12-08T03:50:47.334Z,0
2016-12-08T03:51:55.906Z,0
2016-12-08T03:53:05.144Z,0
2016-12-08T03:54:13.716Z,0
2016-12-08T03:55:22.299Z,0
2016-12-08T03:56:30.872Z,0
2016-12-08T03:57:39.753Z,0
2016-12-08T03:58:48.690Z,0
2016-12-08T03:59:57.260Z,0
2016-12-08T04:01:06.154Z,0
2016-12-08T04:02:15.371Z,0
2016-12-08T04:03:24.263Z,0
2016-12-08T04:04:33.504Z,0
2016-12-08T04:05:42.073Z,0
2016-12-08T04:06:51.931Z,0
2016-12-08T04:08:00.821Z,0
2016-12-08T04:09:10.035Z,0
2016-12-08T04:10:19.277Z,0
2016-12-08T04:11:28.162Z,0
2016-12-08T04:12:37.054Z,0
2016-12-08T04:13:45.631Z,0
2016-12-08T04:14:54.838Z,0
2016-12-08T04:16:03.775Z,0
2016-12-08T04:17:12.347Z,0
2016-12-08T04:18:20.925Z,0
2016-12-08T04:19:29.492Z,0
2016-12-08T04:20:38.063Z,0
2016-12-08T04:21:46.994Z,0
2016-12-08T04:22:55.561Z,0
2016-12-08T04:24:04.127Z,0
2016-12-08T04:25:13.017Z,0
2016-12-08T04:26:21.915Z,0
2016-12-08T04:27:31.476Z,0
2016-12-08T04:28:40.040Z,0
2016-12-08T04:29:48.928Z,0
2016-12-08T04:30:58.139Z,0
2016-12-08T04:32:06.709Z,0
2016-12-08T04:33:15.690Z,0
2016-12-08T04:34:24.907Z,0
2016-12-08T04:35:34.112Z,0
2016-12-08T04:36:42.681Z,0
2016-12-08T04:37:51.572Z,0
2016-12-08T04:39:00.491Z,0
2016-12-08T04:40:09.063Z,0
2016-12-08T04:41:17.960Z,0
2016-12-08T04:42:26.848Z,0
2016-12-08T04:43:35.736Z,0
2016-12-08T04:44:44.708Z,0
2016-12-08T04:45:53.278Z,0
2016-12-08T04:47:01.846Z,0
2016-12-08T04:48:10.736Z,0
2016-12-08T04:49:19.311Z,0
2016-12-08T04:50:28.295Z,0
2016-12-08T04:51:37.502Z,0
2016-12-08T04:52:47.028Z,0
2016-12-08T04:53:56.233Z,0
2016-12-08T04:55:05.121Z,0
2016-12-08T04:56:14.095Z,0
2016-12-08T04:57:23.301Z,0
2016-12-08T04:58:32.188Z,0
2016-12-08T04:59:41.079Z,0
2016-12-08T05:00:49.970Z,0
2016-12-08T05:01:59.212Z,0
2016-12-08T05:03:08.101Z,0
2016-12-08T05:04:17.315Z,0
2016-12-08T05:05:25.892Z,0
2016-12-08T05:06:34.780Z,0
2016-12-08T05:07:44.119Z,0
2016-12-08T05:08:52.688Z,0
2016-12-08T05:10:01.267Z,0
2016-12-08T05:11:10.156Z,0
2016-12-08T05:12:18.731Z,0
2016-12-08T05:13:27.968Z,0
2016-12-08T05:14:37.177Z,0
2016-12-08T05:15:46.384Z,0
2016-12-08T05:16:54.958Z,0
2016-12-08T05:18:03.852Z,0
2016-12-08T05:19:13.093Z,0
2016-12-08T05:20:21.668Z,0
2016-12-08T05:21:30.575Z,0
2016-12-08T05:22:39.779Z,0
2016-12-08T05:23:48.672Z,0
2016-12-08T05:24:57.241Z,0
2016-12-08T05:26:06.129Z,0
2016-12-08T05:27:15.020Z,0
2016-12-08T05:28:23.597Z,0
2016-12-08T05:29:32.169Z,0
2016-12-08T05:30:42.095Z,0
2016-12-08T05:31:50.663Z,0
2016-12-08T05:32:59.560Z,0
2016-12-08T05:34:08.127Z,0
2016-12-08T05:35:16.696Z,0
2016-12-08T05:36:25.317Z,0
2016-12-08T05:37:34.207Z,0
2016-12-08T05:38:43.100Z,0
2016-12-08T05:39:51.995Z,0
2016-12-08T05:41:00.883Z,0
2016-12-08T05:42:09.539Z,0
2016-12-08T05:43:18.114Z,0
2016-12-08T05:44:27.327Z,0
2016-12-08T05:45:35.896Z,0
2016-12-08T05:46:44.470Z,0
2016-12-08T05:47:53.928Z,0
2016-12-08T05:49:03.192Z,0
2016-12-08T05:50:12.091Z,0
2016-12-08T05:51:21.300Z,0
2016-12-08T05:52:30.186Z,0
2016-12-08T05:53:39.527Z,0
2016-12-08T05:54:48.740Z,0
2016-12-08T05:55:57.317Z,0
2016-12-08T05:57:05.894Z,0
2016-12-08T05:58:14.463Z,0
2016-12-08T05:59:23.655Z,0
2016-12-08T06:00:32.220Z,0
2016-12-08T06:01:41.112Z,0
2016-12-08T06:02:49.685Z,0
2016-12-08T06:03:58.269Z,0
2016-12-08T06:05:07.198Z,0
2016-12-08T06:06:16.088Z,0
2016-12-08T06:07:24.985Z,0
2016-12-08T06:08:33.553Z,0
2016-12-08T06:09:42.771Z,0
2016-12-08T06:10:51.442Z,0
2016-12-08T06:12:00.013Z,0
2016-12-08T06:13:08.616Z,0
2016-12-08T06:14:17.182Z,0
2016-12-08T06:15:26.067Z,0
2016-12-08T06:16:34.986Z,0
2016-12-08T06:17:43.562Z,0
2016-12-08T06:18:52.454Z,0
2016-12-08T06:20:01.344Z,0
2016-12-08T06:21:10.232Z,0
2016-12-08T06:22:19.493Z,0
2016-12-08T06:23:28.388Z,0
2016-12-08T06:24:37.597Z,0
2016-12-08T06:25:46.171Z,0
2016-12-08T06:26:55.381Z,0
2016-12-08T06:28:04.368Z,0
2016-12-08T06:29:13.262Z,0
2016-12-08T06:30:21.839Z,0
2016-12-08T06:31:30.413Z,0
2016-12-08T06:32:39.628Z,0
2016-12-08T06:33:48.595Z,0
2016-12-08T06:34:57.169Z,0
2016-12-08T06:36:05.745Z,0
2016-12-08T06:37:14.634Z,0
2016-12-08T06:38:23.524Z,0
2016-12-08T06:39:32.503Z,0
2016-12-08T06:40:41.422Z,0
2016-12-08T06:41:50.311Z,0
2016-12-08T06:42:59.201Z,0
2016-12-08T06:44:08.093Z,0
2016-12-08T06:45:17.285Z,0
2016-12-08T06:46:26.173Z,0
2016-12-08T06:47:34.740Z,24
2016-12-08T06:48:43.946Z,28
2016-12-08T06:49:52.832Z,32
2016-12-08T06:51:01.456Z,28
2016-12-08T06:52:10.029Z,28
2016-12-08T06:53:18.918Z,28
2016-12-08T06:54:28.130Z,32
2016-12-08T06:55:37.346Z,32
2016-12-08T06:56:46.022Z,32
2016-12-08T06:57:55.555Z,32
2016-12-08T06:59:04.455Z,36
2016-12-08T07:00:13.345Z,32
2016-12-08T07:01:22.236Z,36
2016-12-08T07:02:31.177Z,36
2016-12-08T07:03:40.066Z,36
2016-12-08T07:04:48.646Z,40
2016-12-08T07:05:57.851Z,44
2016-12-08T07:07:06.456Z,44
2016-12-08T07:08:15.426Z,48
2016-12-08T07:09:24.315Z,52
2016-12-08T07:10:32.892Z,56
2016-12-08T07:11:41.466Z,60
2016-12-08T07:12:50.038Z,68
2016-12-08T07:13:59.069Z,72
2016-12-08T07:15:07.640Z,80
2016-12-08T07:16:16.210Z,92
2016-12-08T07:17:24.785Z,96
2016-12-08T07:18:33.675Z,104
2016-12-08T07:19:42.617Z,116
2016-12-08T07:20:51.831Z,124
2016-12-08T07:22:00.400Z,136
2016-12-08T07:23:08.968Z,148
2016-12-08T07:24:17.860Z,160
2016-12-08T07:25:27.421Z,172
2016-12-08T07:26:35.995Z,188
2016-12-08T07:27:44.892Z,200
2016-12-08T07:28:54.097Z,212
2016-12-08T07:30:02.988Z,224
2016-12-08T07:31:12.234Z,240
2016-12-08T07:32:20.810Z,252
2016-12-08T07:33:29.412Z,264
2016-12-08T07:34:37.984Z,280
2016-12-08T07:35:46.555Z,292
2016-12-08T07:36:55.804Z,308
2016-12-08T07:38:05.027Z,320
2016-12-08T07:39:13.598Z,328
2016-12-08T07:40:22.165Z,336
2016-12-08T07:41:30.738Z,348
2016-12-08T07:42:39.407Z,352
2016-12-08T07:43:48.612Z,364
2016-12-08T07:44:57.507Z,372
2016-12-08T07:46:06.398Z,384
2016-12-08T07:47:14.969Z,400
2016-12-08T07:48:24.278Z,416
2016-12-08T07:49:33.170Z,448
2016-12-08T07:50:42.377Z,480
2016-12-08T07:51:51.273Z,516
2016-12-08T07:52:59.844Z,544
2016-12-08T07:54:08.783Z,572
2016-12-08T07:55:17.995Z,596
2016-12-08T07:56:27.206Z,632
2016-12-08T07:57:36.097Z,672
2016-12-08T07:58:44.664Z,724
2016-12-08T07:59:53.606Z,788
2016-12-08T08:01:02.179Z,872
2016-12-08T08:02:10.750Z,960
2016-12-08T08:03:19.321Z,1052
2016-12-08T08:04:28.215Z,1120
2016-12-08T08:05:37.522Z,1168
2016-12-08T08:06:46.097Z,1200
2016-12-08T08:07:54.664Z,1220
2016-12-08T08:09:03.236Z,1232
2016-12-08T08:10:11.812Z,1228
2016-12-08T08:11:20.690Z,1228
2016-12-08T08:12:29.261Z,1236
2016-12-08T08:13:38.468Z,1248
2016-12-08T08:14:47.357Z,1268
2016-12-08T08:15:56.249Z,1288
2016-12-08T08:17:04.873Z,1328
2016-12-08T08:18:13.448Z,1376
2016-12-08T08:19:22.340Z,1444
2016-12-08T08:20:31.549Z,1508
2016-12-08T08:21:40.762Z,1572
2016-12-08T08:22:49.756Z,1644
2016-12-08T08:23:58.965Z,1704
2016-12-08T08:25:07.858Z,1756
2016-12-08T08:26:16.758Z,1820
2016-12-08T08:27:25.330Z,1876
2016-12-08T08:28:34.253Z,1928
2016-12-08T08:29:43.461Z,2024
2016-12-08T08:30:52.686Z,2140
2016-12-08T08:32:01.581Z,2264
2016-12-08T08:33:10.473Z,2400
2016-12-08T08:34:19.346Z,2544
2016-12-08T08:35:27.918Z,2680
2016-12-08T08:36:36.492Z,2776
2016-12-08T08:37:45.388Z,2860
2016-12-08T08:38:54.594Z,2900
2016-12-08T08:40:04.219Z,2920
2016-12-08T08:41:13.110Z,2976
2016-12-08T08:42:22.032Z,3084
2016-12-08T08:43:31.245Z,3168
2016-12-08T08:44:40.140Z,3300
2016-12-08T08:45:49.067Z,3356
2016-12-08T08:46:57.643Z,3384
2016-12-08T08:48:06.217Z,3380
2016-12-08T08:49:14.794Z,3344
2016-12-08T08:50:24.005Z,3376
2016-12-08T08:51:32.948Z,3464
2016-12-08T08:52:41.521Z,3572
2016-12-08T08:53:50.095Z,3660
2016-12-08T08:54:58.990Z,3704
2016-12-08T08:56:07.564Z,3700
2016-12-08T08:57:16.486Z,3568
2016-12-08T08:58:25.081Z,3488
2016-12-08T08:59:33.684Z,3408
2016-12-08T09:00:42.892Z,3272
2016-12-08T09:01:51.482Z,3192
2016-12-08T09:03:00.106Z,3112
2016-12-08T09:04:08.997Z,3060
2016-12-08T09:05:18.211Z,3352
2016-12-08T09:06:27.104Z,3480
2016-12-08T09:07:35.690Z,3568
2016-12-08T09:08:44.319Z,3540
2016-12-08T09:09:52.896Z,3320
2016-12-08T09:11:01.794Z,3180
2016-12-08T09:12:10.690Z,3196
2016-12-08T09:13:19.585Z,3208
2016-12-08T09:14:28.225Z,3100
2016-12-08T09:15:36.797Z,3180
2016-12-08T09:16:45.367Z,3340
2016-12-08T09:17:53.941Z,3416
2016-12-08T09:19:02.831Z,3376
2016-12-08T09:20:11.776Z,3420
2016-12-08T09:21:20.361Z,3504
2016-12-08T09:22:29.260Z,3700
2016-12-08T09:23:37.864Z,3864
2016-12-08T09:24:46.763Z,3840
2016-12-08T09:25:55.437Z,4200
2016-12-08T09:27:04.013Z,4028
2016-12-08T09:28:12.587Z,3688
2016-12-08T09:29:21.481Z,3592
2016-12-08T09:30:30.067Z,3568
2016-12-08T09:31:38.939Z,3628
2016-12-08T09:32:47.543Z,3464
2016-12-08T09:33:56.760Z,3516
2016-12-08T09:35:05.659Z,3284
2016-12-08T09:36:14.233Z,3020
2016-12-08T09:37:23.160Z,2824
2016-12-08T09:38:31.734Z,2808
2016-12-08T09:39:40.310Z,2712
2016-12-08T09:40:49.201Z,2696
2016-12-08T09:41:57.819Z,2660
2016-12-08T09:43:06.748Z,2712
2016-12-08T09:44:15.640Z,2920
2016-12-08T09:45:24.219Z,2852
2016-12-08T09:46:33.113Z,2704
2016-12-08T09:47:41.691Z,2812
2016-12-08T09:48:50.938Z,2764
2016-12-08T09:49:59.513Z,2968
2016-12-08T09:51:08.094Z,3204
2016-12-08T09:52:16.985Z,3436
2016-12-08T09:53:25.879Z,3432
2016-12-08T09:54:35.147Z,3512
2016-12-08T09:55:43.721Z,3612
2016-12-08T09:56:52.298Z,3816
2016-12-08T09:58:00.880Z,3988
2016-12-08T09:59:10.097Z,4172
2016-12-08T10:00:18.770Z,4264
2016-12-08T10:01:27.686Z,4036
2016-12-08T10:02:36.912Z,3740
2016-12-08T10:03:45.487Z,3812
2016-12-08T10:04:54.070Z,3844
2016-12-08T10:06:03.069Z,3724
2016-12-08T10:07:11.966Z,3940
2016-12-08T10:08:20.551Z,4348
2016-12-08T10:09:29.143Z,4516
2016-12-08T10:10:37.721Z,4384
2016-12-08T10:11:47.067Z,4276
2016-12-08T10:12:56.297Z,4196
2016-12-08T10:14:05.554Z,3984
2016-12-08T10:15:14.125Z,3896
2016-12-08T10:16:23.022Z,3808
2016-12-08T10:17:32.289Z,3612
2016-12-08T10:18:41.184Z,3696
2016-12-08T10:19:49.788Z,3868
2016-12-08T10:20:58.689Z,4512
2016-12-08T10:22:08.220Z,5008
2016-12-08T10:23:17.466Z,4776
2016-12-08T10:24:26.675Z,5024
2016-12-08T10:25:35.252Z,5004
2016-12-08T10:26:43.855Z,4984
2016-12-08T10:27:52.428Z,5040
2016-12-08T10:29:01.675Z,5344
2016-12-08T10:30:10.252Z,5336
2016-12-08T10:31:18.827Z,5584
2016-12-08T10:32:27.400Z,5824
2016-12-08T10:33:36.297Z,5376
2016-12-08T10:34:45.595Z,5200
2016-12-08T10:35:54.817Z,5376
2016-12-08T10:37:04.036Z,5000
2016-12-08T10:38:12.932Z,5088
2016-12-08T10:39:21.837Z,4840
2016-12-08T10:40:31.116Z,5044
2016-12-08T10:41:39.694Z,5272
2016-12-08T10:42:48.912Z,5392
2016-12-08T10:43:57.487Z,5392
2016-12-08T10:45:06.064Z,5324
2016-12-08T10:46:14.686Z,5236
2016-12-08T10:47:23.583Z,5084
2016-12-08T10:48:32.157Z,5132
2016-12-08T10:49:41.053Z,5468
2016-12-08T10:50:50.264Z,5504
2016-12-08T10:51:59.827Z,5768
2016-12-08T10:53:09.039Z,6060
2016-12-08T10:54:17.929Z,6128
2016-12-08T10:55:26.828Z,6016
2016-12-08T10:56:35.407Z,6040
2016-12-08T10:57:45.074Z,5372
2016-12-08T10:58:53.648Z,4808
2016-12-08T11:00:02.226Z,4712
2016-12-08T11:01:11.442Z,4836
2016-12-08T11:02:20.335Z,4596
2016-12-08T11:03:29.359Z,4560
2016-12-08T11:04:37.939Z,3956
2016-12-08T11:05:46.828Z,3808
2016-12-08T11:06:55.400Z,3596
2016-12-08T11:08:03.977Z,3372
2016-12-08T11:09:13.252Z,3372
2016-12-08T11:10:22.171Z,3416
2016-12-08T11:11:31.062Z,3228
2016-12-08T11:12:39.634Z,3028
2016-12-08T11:13:48.850Z,2896
2016-12-08T11:14:57.827Z,3020
2016-12-08T11:16:07.041Z,3188
2016-12-08T11:17:15.932Z,3416
2016-12-08T11:18:25.140Z,3264
2016-12-08T11:19:34.351Z,3264
2016-12-08T11:20:43.027Z,3440
2016-12-08T11:21:51.600Z,3548
2016-12-08T11:23:00.814Z,3632
2016-12-08T11:24:09.705Z,3832
2016-12-08T11:25:18.279Z,4148
2016-12-08T11:26:27.945Z,4428
2016-12-08T11:27:36.516Z,4188
2016-12-08T11:28:45.410Z,3944
2016-12-08T11:29:53.984Z,3696
2016-12-08T11:31:02.558Z,3260
2016-12-08T11:32:11.483Z,3076
2016-12-08T11:33:20.377Z,2828
2016-12-08T11:34:28.956Z,2600
2016-12-08T11:35:37.853Z,2504
2016-12-08T11:36:46.425Z,2428
2016-12-08T11:37:55.738Z,2340
2016-12-08T11:39:04.635Z,2308
2016-12-08T11:40:13.216Z,2400
2016-12-08T11:41:21.790Z,2576
2016-12-08T11:42:31.002Z,2720
2016-12-08T11:43:40.564Z,2936
2016-12-08T11:44:49.141Z,2988
2016-12-08T11:45:58.365Z,3008
2016-12-08T11:47:07.264Z,2828
2016-12-08T11:48:16.162Z,2756
2016-12-08T11:49:25.114Z,2944
2016-12-08T11:50:33.690Z,2968
2016-12-08T11:51:42.267Z,3308
2016-12-08T11:52:51.159Z,3592
2016-12-08T11:53:59.735Z,3672
2016-12-08T11:55:08.359Z,3288
2016-12-08T11:56:17.253Z,3128
2016-12-08T11:57:25.828Z,2944
2016-12-08T11:58:35.047Z,2536
2016-12-08T11:59:43.621Z,2580
2016-12-08T12:00:52.492Z,2832
2016-12-08T12:02:01.068Z,2972
2016-12-08T12:03:09.646Z,2948
2016-12-08T12:04:18.221Z,3064
2016-12-08T12:05:27.119Z,2968
2016-12-08T12:06:35.747Z,3284
2016-12-08T12:07:44.636Z,3840
2016-12-08T12:08:53.214Z,3488
2016-12-08T12:10:02.104Z,3376
2016-12-08T12:11:10.995Z,3560
2016-12-08T12:12:20.238Z,3612
2016-12-08T12:13:28.838Z,3460
2016-12-08T12:14:37.732Z,3032
2016-12-08T12:15:46.306Z,2936
2016-12-08T12:16:55.520Z,2736
2016-12-08T12:18:04.517Z,2720
2016-12-08T12:19:13.410Z,2948
2016-12-08T12:20:22.302Z,2920
2016-12-08T12:21:31.519Z,3068
2016-12-08T12:22:40.092Z,3080
2016-12-08T12:23:49.081Z,2984
2016-12-08T12:24:57.973Z,2728
2016-12-08T12:26:07.183Z,2480
2016-12-08T12:27:15.756Z,2312
2016-12-08T12:28:24.686Z,2284
2016-12-08T12:29:33.360Z,2436
2016-12-08T12:30:41.938Z,2296
2016-12-08T12:31:50.516Z,2192
2016-12-08T12:32:59.413Z,2548
2016-12-08T12:34:07.990Z,2920
2016-12-08T12:35:16.615Z,3140
2016-12-08T12:36:25.828Z,3304
2016-12-08T12:37:34.744Z,3528
2016-12-08T12:38:43.641Z,3724
2016-12-08T12:39:52.536Z,3484
2016-12-08T12:41:01.579Z,3412
2016-12-08T12:42:10.155Z,3396
2016-12-08T12:43:19.370Z,3560
2016-12-08T12:44:28.264Z,3672
2016-12-08T12:45:37.162Z,3672
2016-12-08T12:46:46.088Z,3192
2016-12-08T12:47:54.669Z,2948
2016-12-08T12:49:03.563Z,2892
2016-12-08T12:50:13.093Z,2712
2016-12-08T12:51:22.303Z,2312
2016-12-08T12:52:31.245Z,2536
2016-12-08T12:53:40.140Z,2944
2016-12-08T12:54:48.714Z,2808
2016-12-08T12:55:57.288Z,2524
2016-12-08T12:57:06.504Z,2740
2016-12-08T12:58:15.767Z,2700
2016-12-08T12:59:24.346Z,2228
2016-12-08T13:00:32.920Z,2400
2016-12-08T13:01:41.492Z,2552
2016-12-08T13:02:50.066Z,2368
2016-12-08T13:03:58.741Z,2528
2016-12-08T13:05:07.639Z,2768
2016-12-08T13:06:16.216Z,2936
2016-12-08T13:07:25.429Z,2992
2016-12-08T13:08:34.005Z,3180
2016-12-08T13:09:42.972Z,2628
2016-12-08T13:10:52.183Z,2560
2016-12-08T13:12:00.759Z,2336
2016-12-08T13:13:09.664Z,2300
2016-12-08T13:14:18.561Z,2472
2016-12-08T13:15:27.189Z,2236
2016-12-08T13:16:36.730Z,2288
2016-12-08T13:17:45.319Z,2304
2016-12-08T13:18:54.221Z,2124
2016-12-08T13:20:03.119Z,2176
2016-12-08T13:21:12.044Z,2480
2016-12-08T13:22:20.620Z,2680
2016-12-08T13:23:29.195Z,2820
2016-12-08T13:24:38.024Z,2664
2016-12-08T13:25:46.606Z,2500
2016-12-08T13:26:55.863Z,2164
2016-12-08T13:28:04.758Z,2128
2016-12-08T13:29:13.657Z,2020
2016-12-08T13:30:23.248Z,2100
2016-12-08T13:31:32.145Z,2108
2016-12-08T13:32:41.410Z,2096
2016-12-08T13:33:50.331Z,2100
2016-12-08T13:34:58.909Z,2124
2016-12-08T13:36:07.828Z,2152
2016-12-08T13:37:16.403Z,2176
2016-12-08T13:38:25.330Z,2200
2016-12-08T13:39:34.275Z,2220
2016-12-08T13:40:42.852Z,2240
2016-12-08T13:41:51.755Z,2272
2016-12-08T13:43:00.965Z,2296
2016-12-08T13:44:09.966Z,2308
2016-12-08T13:45:19.179Z,2304
2016-12-08T13:46:27.750Z,2312
2016-12-08T13:47:36.967Z,2340
2016-12-08T13:48:46.213Z,2368
2016-12-08T13:49:55.159Z,2376
2016-12-08T13:51:04.373Z,2340
2016-12-08T13:52:12.953Z,2280
2016-12-08T13:53:21.527Z,2220
2016-12-08T13:54:30.420Z,2172
2016-12-08T13:55:39.050Z,2132
2016-12-08T13:56:47.625Z,2096
2016-12-08T13:57:56.520Z,2052
2016-12-08T13:59:05.097Z,2004
2016-12-08T14:00:14.001Z,1968
2016-12-08T14:01:22.882Z,1968
2016-12-08T14:02:31.462Z,2004
2016-12-08T14:03:40.672Z,2068
2016-12-08T14:04:49.248Z,2132
2016-12-08T14:05:58.142Z,2152
2016-12-08T14:07:07.085Z,2128
2016-12-08T14:08:15.985Z,2048
2016-12-08T14:09:24.887Z,1936
2016-12-08T14:10:33.783Z,1824
2016-12-08T14:11:42.360Z,1720
2016-12-08T14:12:51.925Z,1620
2016-12-08T14:14:00.819Z,1528
2016-12-08T14:15:09.397Z,1460
2016-12-08T14:16:17.970Z,1412
2016-12-08T14:17:26.542Z,1380
2016-12-08T14:18:35.170Z,1360
2016-12-08T14:19:43.748Z,1344
2016-12-08T14:20:52.650Z,1304
2016-12-08T14:22:01.231Z,1232
2016-12-08T14:23:10.128Z,1152
2016-12-08T14:24:19.374Z,1084
2016-12-08T14:25:28.267Z,1008
2016-12-08T14:26:37.165Z,920
2016-12-08T14:27:46.064Z,832
2016-12-08T14:28:54.962Z,736
2016-12-08T14:30:04.309Z,656
2016-12-08T14:31:13.205Z,592
2016-12-08T14:32:22.414Z,552
2016-12-08T14:33:31.317Z,528
2016-12-08T14:34:40.207Z,496
2016-12-08T14:35:48.833Z,468
2016-12-08T14:36:58.047Z,452
2016-12-08T14:38:06.623Z,456
2016-12-08T14:39:15.198Z,468
2016-12-08T14:40:23.774Z,484
2016-12-08T14:41:32.746Z,480
2016-12-08T14:42:41.637Z,456
2016-12-08T14:43:50.539Z,424
2016-12-08T14:44:59.752Z,392
2016-12-08T14:46:08.328Z,364
2016-12-08T14:47:17.273Z,336
2016-12-08T14:48:25.855Z,312
2016-12-08T14:49:34.753Z,292
2016-12-08T14:50:43.327Z,276
2016-12-08T14:51:52.220Z,264
2016-12-08T14:53:01.095Z,260
2016-12-08T14:54:10.628Z,260
2016-12-08T14:55:19.206Z,268
2016-12-08T14:56:28.733Z,272
2016-12-08T14:57:37.310Z,272
2016-12-08T14:58:46.284Z,276
2016-12-08T14:59:55.501Z,276
2016-12-08T15:01:04.076Z,264
2016-12-08T15:02:12.649Z,248
2016-12-08T15:03:21.544Z,232
2016-12-08T15:04:30.250Z,216
2016-12-08T15:05:38.843Z,196
2016-12-08T15:06:47.736Z,184
2016-12-08T15:07:56.962Z,168
2016-12-08T15:09:05.537Z,164
2016-12-08T15:10:14.834Z,152
2016-12-08T15:11:23.727Z,144
2016-12-08T15:12:32.621Z,132
2016-12-08T15:13:41.842Z,116
2016-12-08T15:14:50.416Z,100
2016-12-08T15:15:59.404Z,80
2016-12-08T15:17:07.977Z,64
2016-12-08T15:18:16.868Z,48
2016-12-08T15:19:25.441Z,36
2016-12-08T15:20:34.022Z,24
2016-12-08T15:21:43.584Z,20
2016-12-08T15:22:52.158Z,16
2016-12-08T15:24:00.734Z,16
2016-12-08T15:25:09.625Z,12
2016-12-08T15:26:18.521Z,16
2016-12-08T15:27:27.397Z,16
2016-12-08T15:28:36.298Z,12
2016-12-08T15:29:45.197Z,8
2016-12-08T15:30:54.095Z,12
2016-12-08T15:32:02.672Z,16
2016-12-08T15:33:11.594Z,16
2016-12-08T15:34:20.168Z,12
2016-12-08T15:35:28.742Z,8
2016-12-08T15:36:37.632Z,4
2016-12-08T15:37:46.845Z,4
2016-12-08T15:38:55.833Z,4
2016-12-08T15:40:04.725Z,4
2016-12-08T15:41:13.617Z,4
2016-12-08T15:42:22.509Z,4
2016-12-08T15:43:31.405Z,4
2016-12-08T15:44:40.080Z,0
2016-12-08T15:45:48.653Z,4
2016-12-08T15:46:57.547Z,4
2016-12-08T15:48:06.440Z,0
2016-12-08T15:49:15.014Z,0
2016-12-08T15:50:23.891Z,0
2016-12-08T15:51:32.783Z,0
2016-12-08T15:52:41.359Z,0
2016-12-08T15:53:49.936Z,0
2016-12-08T15:54:58.827Z,0
2016-12-08T15:56:07.451Z,0
2016-12-08T15:57:16.657Z,0
2016-12-08T15:58:25.550Z,0
2016-12-08T15:59:34.121Z,0
2016-12-08T16:00:42.699Z,0
2016-12-08T16:01:51.896Z,0
2016-12-08T16:03:00.786Z,0
2016-12-08T16:04:09.362Z,0
2016-12-08T16:05:17.940Z,0
2016-12-08T16:06:26.831Z,0